Continental, Arizona
Current Conditions -  °F | °C
As of 7:53 AM on Friday 24 Oct 2014 (Local Time) from KTUS Reporting Station
Clear Clear  
Wind Chill: 67°   Ceiling: Unl
Heat Index: 67°   Visibility: 10mi
Dew Point: 47°   Wind: 7mph
Humidity: 49%   Direction: 150°SSE
Pressure: 30.15"   Gusts: NA
Location:  31.9776°N, 110.921°W
Report Text: KTUS 241453Z 15006KT 10SM CLR 19/08 A3015 RMK AO2 SLP171 T01940083 53014
Loading
Personal Weather Stations






























Interactive Weather Map
Tropical Storm Tracking
New forecast layout! Learn more

10-Day Weather Forecast

Advertisements
Track Severe Weather on mobile